M I D A S
Marine Information and Data Acquisition System
Tripno 229 of the Zeeleeuw from 2002-03-25 07:38:32 to 2002-03-25 15:12:41
Back to CruiseResearch ActivitiesStationsMapUnderway DataData graphs

EquipmentUnitsComments
TimeDGPSUTC
LatitudeDGPSDM.mWGS84
LongitudeDGPSDM.mWGS84
SpeedMeteo Stationm/sRelative wind speed
DirectionMeteo StationdegRelative wind direction
TemperatureMeteo Stationdeg CelciusAir temperature
PressureMeteo StationPaAtmospheric pressure
HumidityMeteo Station%Relative humidity
Missing or incorrect values are displayed as -999
Metereological data collected by the RV Zeeleeuw from 2002-03-25 07:38:32 to 2002-03-25 15:12:41
Time Latitude Longitude Speed Direction Temperature Pressure Humidity
2002-03-25 07:39 51°13.781 2°55.677 2.6 217 4.3 103040 73
2002-03-25 07:40 51°13.921 2°55.563 3 216 4.3 103040 74
2002-03-25 07:41 51°14.07 2°55.457 2.9 213 4.3 103040 73
2002-03-25 07:42 51°14.209 2°55.333 2.2 233 4.3 103040 73
2002-03-25 07:43 51°14.321 2°55.149 2.4 230 4.3 103040 73
2002-03-25 07:44 51°14.461 2°54.974 3.7 207 4.3 103040 73
2002-03-25 07:45 51°14.627 2°54.804 3.5 208 4.3 103040 73
2002-03-25 07:46 51°14.79 2°54.603 3.6 215 4.3 103040 74
2002-03-25 07:47 51°14.956 2°54.397 4.3 227 4.4 103040 74
2002-03-25 07:48 51°15.145 2°54.201 4.6 216 4.4 103040 74
2002-03-25 07:49 51°15.348 2°54.029 4.6 206 4.4 103040 73
2002-03-25 07:50 51°15.545 2°53.846 4.8 224 4.5 103040 73
2002-03-25 07:51 51°15.745 2°53.669 4.1 223 4.5 103040 74
2002-03-25 07:52 51°15.952 2°53.497 4.8 212 4.6 103040 75
2002-03-25 07:53 51°16.15 2°53.328 4.8 211 4.6 103040 75
2002-03-25 07:54 51°16.361 2°53.168 4.3 225 4.5 103040 75
2002-03-25 07:55 51°16.565 2°53.021 4.6 218 4.6 103050 74
2002-03-25 07:56 51°16.773 2°52.868 4 207 4.6 103050 74
2002-03-25 07:57 51°16.976 2°52.72 4 228 4.6 103050 74
2002-03-25 07:58 51°17.179 2°52.573 4.2 225 4.7 103050 74
2002-03-25 07:59 51°17.388 2°52.418 4.1 209 4.7 103050 73
2002-03-25 08:00 51°17.532 2°52.174 4.7 242 4.7 103050 72
2002-03-25 08:01 51°17.649 2°51.875 4.5 248 4.8 103050 72
2002-03-25 08:02 51°17.766 2°51.575 4.8 242 4.9 103050 73
2002-03-25 08:03 51°17.885 2°51.27 4.4 244 4.9 103050 73
2002-03-25 08:04 51°18.002 2°50.968 4.8 239 5 103050 74
2002-03-25 08:05 51°18.121 2°50.667 4.8 242 5.1 103050 74
2002-03-25 08:06 51°18.235 2°50.367 4.9 234 5.1 103050 74
2002-03-25 08:07 51°18.356 2°50.058 5 238 5.2 103050 73
2002-03-25 08:08 51°18.473 2°49.76 5 243 5.2 103050 73
2002-03-25 08:09 51°18.592 2°49.457 4.9 251 5.3 103050 74
2002-03-25 08:10 51°18.709 2°49.157 4.1 255 5.3 103050 69
2002-03-25 08:11 51°18.833 2°48.865 4.1 249 5.4 103050 68
2002-03-25 08:12 51°18.955 2°48.571 4.3 244 5.5 103050 65
2002-03-25 08:13 51°19.069 2°48.274 4.6 260 5.6 103040 65
2002-03-25 08:14 51°19.183 2°47.956 4.8 260 5.7 103040 64
2002-03-25 08:15 51°19.328 2°47.679 4.6 252 5.8 103050 66
2002-03-25 08:16 51°19.466 2°47.398 4.8 251 5.8 103040 64
2002-03-25 08:17 51°19.607 2°47.113 5.1 259 5.8 103040 64
2002-03-25 08:18 51°19.752 2°46.826 5 262 5.9 103050 65
2002-03-25 08:19 51°19.89 2°46.547 4.7 248 5.9 103040 64
2002-03-25 08:20 51°20.025 2°46.27 4.7 262 5.9 103050 64
2002-03-25 08:21 51°20.101 2°45.961 7 272 5.9 103030 62
2002-03-25 08:22 51°20.143 2°45.627 6.8 265 5.9 103040 63
2002-03-25 08:23 51°20.199 2°45.287 6 267 6 103040 64
2002-03-25 08:24 51°20.251 2°44.95 5.8 261 6 103030 64
2002-03-25 08:25 51°20.305 2°44.612 6.2 257 5.9 103040 64
2002-03-25 08:26 51°20.361 2°44.272 7.1 260 6 103040 67
2002-03-25 08:27 51°20.415 2°43.932 6.7 252 6 103040 66
2002-03-25 08:28 51°20.472 2°43.594 7.3 255 6 103030 66
2002-03-25 08:29 51°20.52 2°43.255 7.4 260 5.9 103030 65
2002-03-25 08:30 51°20.564 2°42.914 6.6 264 5.9 103040 66
2002-03-25 08:31 51°20.6 2°42.575 6.6 259 5.9 103040 67
2002-03-25 08:32 51°20.634 2°42.239 6.2 261 6 103030 67
2002-03-25 08:33 51°20.669 2°41.905 7.8 256 6 103040 69
2002-03-25 08:34 51°20.704 2°41.575 7 263 6 103030 66
2002-03-25 08:35 51°20.741 2°41.238 7.7 260 6 103030 65
2002-03-25 08:36 51°20.775 2°40.898 7.3 262 6 103030 67
2002-03-25 08:37 51°20.797 2°40.55 8 264 6 103030 67
2002-03-25 08:38 51°20.821 2°40.212 6.9 254 6 103040 66
2002-03-25 08:39 51°20.845 2°39.862 7.1 261 6 103040 66
2002-03-25 08:40 51°20.868 2°39.523 8.7 258 6.1 103030 69
2002-03-25 08:41 51°20.892 2°39.174 7.5 262 6 103030 66
2002-03-25 08:42 51°20.915 2°38.84 8.1 262 6 103040 66
2002-03-25 08:43 51°20.939 2°38.494 7.4 263 6 103040 67
2002-03-25 08:44 51°20.962 2°38.157 7.5 259 6 103040 67
2002-03-25 08:45 51°20.986 2°37.821 7.2 261 6 103040 67
2002-03-25 08:46 51°21.132 2°37.602 4 223 6 103050 68
2002-03-25 08:47 51°21.363 2°37.595 4.7 230 6.1 103050 70
2002-03-25 08:48 51°21.598 2°37.576 3.8 233 6 103050 67
2002-03-25 08:49 51°21.829 2°37.529 4.6 240 6.1 103050 68
2002-03-25 08:50 51°22.061 2°37.481 4.1 240 6.1 103050 68
2002-03-25 08:51 51°22.293 2°37.42 3.7 248 6.1 103050 67
2002-03-25 08:52 51°22.516 2°37.325 3.6 220 6.2 103040 68
2002-03-25 08:53 51°22.689 2°37.115 4.5 254 6.2 103050 68
2002-03-25 08:54 51°22.812 2°36.83 5.4 258 6.3 103040 69
2002-03-25 08:55 51°22.909 2°36.52 4.9 251 6.3 103050 69
2002-03-25 08:56 51°22.978 2°36.19 6.3 264 6.3 103030 68
2002-03-25 08:57 51°23.009 2°35.852 7.8 267 6.3 103040 68
2002-03-25 08:58 51°23.027 2°35.518 7.8 264 6.2 103030 64
2002-03-25 08:59 51°23.046 2°35.179 7.3 267 6.3 103030 67
2002-03-25 09:00 51°23.067 2°34.835 7 266 6.3 103030 67
2002-03-25 09:01 51°23.088 2°34.496 6.3 269 6.3 103040 66
2002-03-25 09:02 51°23.108 2°34.158 7.6 259 6.3 103040 68
2002-03-25 09:03 51°23.109 2°33.821 7.3 263 6.3 103030 68
2002-03-25 09:04 51°23.104 2°33.486 7 261 6.3 103030 69
2002-03-25 09:05 51°23.094 2°33.153 7.2 268 6.4 103030 68
2002-03-25 09:06 51°23.085 2°32.821 8.6 262 6.4 103030 68
2002-03-25 09:07 51°23.076 2°32.496 7.8 259 6.4 103030 66
2002-03-25 09:08 51°23.067 2°32.166 7.8 256 6.4 103040 67
2002-03-25 09:09 51°23.058 2°31.832 8 261 6.5 103030 67
2002-03-25 09:10 51°23.05 2°31.503 8.5 261 6.4 103030 67
2002-03-25 09:11 51°23.04 2°31.169 8.9 260 6.5 103030 68
2002-03-25 09:12 51°23.03 2°30.849 8.8 259 6.5 103030 67
2002-03-25 09:13 51°23.02 2°30.511 8.6 259 6.6 103020 67
2002-03-25 09:14 51°23.008 2°30.186 8.9 257 6.6 103030 67
2002-03-25 09:15 51°22.991 2°29.85 8.7 258 6.5 103030 66
2002-03-25 09:16 51°22.973 2°29.525 9.4 256 6.6 103040 66
2002-03-25 09:17 51°22.945 2°29.198 8.5 261 6.5 103030 65
2002-03-25 09:18 51°22.908 2°28.869 9.1 256 6.6 103030 67
2002-03-25 09:19 51°22.874 2°28.549 8.6 259 6.6 103030 65
2002-03-25 09:20 51°22.84 2°28.217 9.4 256 6.6 103030 67
2002-03-25 09:21 51°22.813 2°27.89 7.7 251 6.7 103030 66
2002-03-25 09:22 51°22.788 2°27.564 8.8 261 6.7 103030 64
2002-03-25 09:23 51°22.761 2°27.242 7.3 251 6.7 103030 65
2002-03-25 09:24 51°22.733 2°26.91 8.8 257 6.7 103030 65
2002-03-25 09:25 51°22.71 2°26.587 8 255 6.8 103030 64
2002-03-25 09:26 51°22.733 2°26.254 6.5 258 6.8 103030 65
2002-03-25 09:27 51°22.889 2°26.03 4.2 240 6.8 103040 66
2002-03-25 09:28 51°23.101 2°25.91 5.4 250 6.8 103040 64
2002-03-25 09:29 51°23.303 2°25.734 4.5 240 6.8 103040 64
2002-03-25 09:30 51°23.534 2°25.687 4.5 226 6.9 103040 64
2002-03-25 09:31 51°23.78 2°25.743 4.1 227 6.9 103030 64
2002-03-25 09:32 51°24.023 2°25.761 4.9 223 6.9 103040 65
2002-03-25 09:33 51°24.261 2°25.794 4.6 209 6.9 103040 65
2002-03-25 09:34 51°24.503 2°25.834 4.2 231 6.8 103040 64
2002-03-25 09:35 51°24.749 2°25.874 4.7 212 6.8 103040 64
2002-03-25 09:36 51°24.988 2°25.911 5.2 226 6.8 103030 65
2002-03-25 09:37 51°25.236 2°25.958 4.8 213 6.8 103040 64
2002-03-25 09:38 51°25.475 2°26.004 5.3 229 6.8 103030 64
2002-03-25 09:39 51°25.72 2°26.053 5 213 6.9 103030 65
2002-03-25 09:40 51°25.961 2°26.097 4.4 222 6.8 103040 67
2002-03-25 09:41 51°26.197 2°26.154 4.4 222 6.8 103040 64
2002-03-25 09:42 51°26.439 2°26.213 4.3 217 6.8 103040 65
2002-03-25 09:43 51°26.674 2°26.272 4.5 223 6.9 103040 66
2002-03-25 09:44 51°26.917 2°26.333 4.5 216 6.8 103040 64
2002-03-25 09:45 51°27.157 2°26.393 4.3 226 6.9 103040 66
2002-03-25 09:46 51°27.399 2°26.453 4.6 210 6.9 103040 65
2002-03-25 09:47 51°27.64 2°26.51 4.8 234 6.9 103040 66
2002-03-25 09:48 51°27.884 2°26.568 4.4 228 7 103040 64
2002-03-25 09:49 51°28.126 2°26.625 4.6 211 7 103040 64
2002-03-25 09:50 51°28.367 2°26.7 4.5 216 6.9 103040 64
2002-03-25 09:51 51°28.595 2°26.781 2.6 215 6.9 103040 65
2002-03-25 09:52 51°28.745 2°26.786 0.1 231 7 103050 64
2002-03-25 09:53 51°28.818 2°26.783 3.1 26 7.2 103040 64
2002-03-25 09:54 51°28.834 2°26.813 3.7 21 7.2 103050 62
2002-03-25 09:55 51°28.853 2°26.839 3 3 7.2 103040 62
2002-03-25 09:56 51°28.873 2°26.864 2.6 12 7.1 103040 62
2002-03-25 09:57 51°28.894 2°26.885 2.5 18 7.1 103050 63
2002-03-25 09:58 51°28.915 2°26.904 2.1 345 7.1 103040 64
2002-03-25 09:59 51°28.938 2°26.911 2.2 303 7.1 103050 64
2002-03-25 10:00 51°29.022 2°26.72 4.9 260 7.1 103040 63
2002-03-25 10:01 51°29.188 2°26.487 5.3 253 7.1 103040 63
2002-03-25 10:02 51°29.397 2°26.312 4.4 247 7.1 103050 62
2002-03-25 10:03 51°29.61 2°26.162 5.3 253 7.1 103050 63
2002-03-25 10:04 51°29.826 2°26.019 4.6 238 7.2 103050 62
2002-03-25 10:05 51°30.045 2°25.88 4.3 245 7.2 103050 64
2002-03-25 10:06 51°30.26 2°25.736 4.8 247 7.3 103050 64
2002-03-25 10:07 51°30.475 2°25.599 4.2 249 7.3 103050 62
2002-03-25 10:08 51°30.698 2°25.459 4.6 252 7.3 103050 62
2002-03-25 10:09 51°30.916 2°25.317 4.2 244 7.3 103060 62
2002-03-25 10:10 51°31.135 2°25.18 4.3 255 7.3 103050 61
2002-03-25 10:11 51°31.353 2°25.041 4.1 241 7.4 103060 64
2002-03-25 10:12 51°31.571 2°24.901 4.7 247 7.4 103050 63
2002-03-25 10:13 51°31.788 2°24.76 3.8 247 7.4 103050 62
2002-03-25 10:14 51°32.004 2°24.618 4.3 252 7.4 103050 64
2002-03-25 10:15 51°32.221 2°24.478 4.4 240 7.4 103050 63
2002-03-25 10:16 51°32.437 2°24.334 4.7 247 7.4 103050 62
2002-03-25 10:17 51°32.654 2°24.194 4.6 254 7.4 103050 61
2002-03-25 10:18 51°32.869 2°24.049 4.3 243 7.4 103050 63
2002-03-25 10:19 51°33.084 2°23.917 4.9 245 7.4 103050 63
2002-03-25 10:20 51°33.306 2°23.777 4.3 239 7.4 103050 64
2002-03-25 10:21 51°33.528 2°23.648 3.9 250 7.4 103050 63
2002-03-25 10:22 51°33.761 2°23.595 5 239 7.4 103050 63
2002-03-25 10:23 51°34.007 2°23.591 4 230 7.4 103050 65
2002-03-25 10:24 51°34.249 2°23.657 5.2 228 7.4 103050 65
2002-03-25 10:25 51°34.491 2°23.72 4.7 216 7.4 103050 64
2002-03-25 10:26 51°34.733 2°23.787 4.8 231 7.4 103050 66
2002-03-25 10:27 51°34.975 2°23.846 4 221 7.4 103050 65
2002-03-25 10:28 51°35.216 2°23.91 4.3 228 7.4 103050 64
2002-03-25 10:29 51°35.454 2°24.014 4.4 223 7.3 103060 63
2002-03-25 10:30 51°35.691 2°24.126 4.6 206 7.3 103060 65
2002-03-25 10:31 51°35.926 2°24.256 4.5 233 7.3 103050 65
2002-03-25 10:32 51°36.16 2°24.381 4.7 218 7.3 103050 66
2002-03-25 10:33 51°36.395 2°24.517 4.6 218 7.3 103050 65
2002-03-25 10:34 51°36.626 2°24.666 4.7 222 7.3 103050 66
2002-03-25 10:35 51°36.856 2°24.825 5.2 207 7.3 103050 65
2002-03-25 10:36 51°37.085 2°24.987 4.9 217 7.3 103050 65
2002-03-25 10:37 51°37.311 2°25.16 4.9 219 7.4 103040 67
2002-03-25 10:38 51°37.54 2°25.323 5.2 202 7.3 103040 65
2002-03-25 10:39 51°37.766 2°25.493 4.3 219 7.3 103040 64
2002-03-25 10:40 51°37.992 2°25.665 4.5 207 7.3 103040 65
2002-03-25 10:41 51°38.212 2°25.848 4.7 199 7.2 103030 63
2002-03-25 10:42 51°38.438 2°26.036 4.1 221 7.2 103030 64
2002-03-25 10:43 51°38.661 2°26.22 4.9 197 7.2 103030 66
2002-03-25 10:44 51°38.877 2°26.412 5.5 201 7.1 103030 65
2002-03-25 10:45 51°39.091 2°26.638 4.1 209 7.1 103030 65
2002-03-25 10:46 51°39.306 2°26.848 5.8 200 7.1 103030 64
2002-03-25 10:47 51°39.517 2°27.058 4.6 211 7.1 103030 65
2002-03-25 10:48 51°39.732 2°27.271 4.3 227 7.1 103030 63
2002-03-25 10:49 51°39.957 2°27.473 5.5 202 7.2 103030 66
2002-03-25 10:50 51°40.163 2°27.706 5.2 194 7.2 103020 65
2002-03-25 10:51 51°40.385 2°27.905 4.5 215 7.1 103030 66
2002-03-25 10:52 51°40.599 2°28.121 5.7 197 7.2 103030 66
2002-03-25 10:53 51°40.804 2°28.342 4 210 7.1 103030 64
2002-03-25 10:54 51°41.018 2°28.56 4.7 209 7.2 103020 66
2002-03-25 10:55 51°41.237 2°28.77 5.9 200 7.1 103020 66
2002-03-25 10:56 51°41.451 2°28.982 3.7 206 7.1 103030 66
2002-03-25 10:57 51°41.667 2°29.196 4.5 211 7.1 103030 66
2002-03-25 10:58 51°41.882 2°29.407 4.8 201 7.1 103020 64
2002-03-25 10:59 51°42.096 2°29.618 3.6 204 7.1 103030 65
2002-03-25 11:00 51°42.309 2°29.834 4.5 206 7.1 103020 64
2002-03-25 11:01 51°42.524 2°30.044 4.7 195 7.1 103030 64
2002-03-25 11:02 51°42.738 2°30.256 4.3 207 7.1 103030 64
2002-03-25 11:03 51°42.951 2°30.469 4.8 210 7 103020 64
2002-03-25 11:04 51°43.101 2°30.768 9 204 7.1 103020 65
2002-03-25 11:05 51°43.028 2°31.095 10.8 222 7.1 103010 66
2002-03-25 11:06 51°42.878 2°31.361 11.3 221 7.3 103000 64
2002-03-25 11:07 51°42.733 2°31.639 11.1 223 7.5 103000 66
2002-03-25 11:08 51°42.584 2°31.909 11.9 224 7.5 103010 64
2002-03-25 11:09 51°42.437 2°32.184 10.8 225 7.5 103010 66
2002-03-25 11:10 51°42.294 2°32.456 11.2 222 7.5 103010 64
2002-03-25 11:11 51°42.147 2°32.736 11 220 7.4 103000 63
2002-03-25 11:12 51°42.001 2°33.009 10.6 218 7.5 103000 64
2002-03-25 11:13 51°41.862 2°33.295 10.5 216 7.5 103000 64
2002-03-25 11:14 51°41.721 2°33.575 11.2 221 7.5 103010 64
2002-03-25 11:15 51°41.575 2°33.847 11.3 221 7.5 103010 64
2002-03-25 11:16 51°41.432 2°34.122 10.9 221 7.4 103000 63
2002-03-25 11:17 51°41.288 2°34.396 11.5 221 7.4 103010 62
2002-03-25 11:18 51°41.151 2°34.679 11.2 220 7.4 103000 65
2002-03-25 11:19 51°41.036 2°34.993 10.8 220 7.4 103010 65
2002-03-25 11:20 51°40.939 2°35.328 10.4 219 7.4 103010 66
2002-03-25 11:21 51°40.845 2°35.668 11.3 218 7.4 103000 65
2002-03-25 11:22 51°40.747 2°36.006 10.7 218 7.4 103000 65
2002-03-25 11:23 51°40.659 2°36.358 10.7 218 7.4 103000 63
2002-03-25 11:24 51°40.567 2°36.705 11.2 218 7.4 103000 63
2002-03-25 11:25 51°40.476 2°37.049 10.9 222 7.4 102990 64
2002-03-25 11:26 51°40.385 2°37.391 11.2 217 7.4 103000 65
2002-03-25 11:27 51°40.296 2°37.734 11.7 214 7.4 103010 66
2002-03-25 11:28 51°40.208 2°38.079 10.7 222 7.4 103000 65
2002-03-25 11:29 51°40.12 2°38.424 11.8 222 7.3 103000 66
2002-03-25 11:30 51°40.034 2°38.769 11 221 7.3 103000 63
2002-03-25 11:31 51°39.949 2°39.115 11.5 216 7.3 103000 61
2002-03-25 11:32 51°39.862 2°39.461 11.8 219 7.3 103010 61
2002-03-25 11:33 51°39.775 2°39.804 11.7 217 7.3 103010 60
2002-03-25 11:34 51°39.69 2°40.148 11.2 223 7.3 103010 61
2002-03-25 11:35 51°39.603 2°40.49 10.7 217 7.3 103000 60
2002-03-25 11:36 51°39.516 2°40.832 11.2 217 7.4 103000 61
2002-03-25 11:37 51°39.428 2°41.174 11.3 219 7.4 103010 60
2002-03-25 11:38 51°39.339 2°41.52 10.7 218 7.3 103010 60
2002-03-25 11:39 51°39.249 2°41.865 11 216 7.4 103000 62
2002-03-25 11:40 51°39.158 2°42.208 11.8 219 7.3 103000 63
2002-03-25 11:41 51°39.07 2°42.544 10.1 219 7.3 103000 61
2002-03-25 11:42 51°38.976 2°42.89 10.9 220 7.4 103000 61
2002-03-25 11:43 51°38.886 2°43.229 10.9 221 7.4 103010 62
2002-03-25 11:44 51°38.797 2°43.57 11.2 215 7.4 103010 60
2002-03-25 11:45 51°38.707 2°43.91 11.5 225 7.4 103010 62
2002-03-25 11:46 51°38.619 2°44.25 11.6 220 7.4 103010 61
2002-03-25 11:47 51°38.529 2°44.59 10.8 222 7.3 103010 62
2002-03-25 11:48 51°38.44 2°44.929 11.3 221 7.3 103000 61
2002-03-25 11:49 51°38.352 2°45.269 11.4 223 7.3 103010 60
2002-03-25 11:50 51°38.262 2°45.609 10.8 222 7.3 103010 61
2002-03-25 11:51 51°38.157 2°45.931 11.3 231 7.3 103000 60
2002-03-25 11:52 51°37.966 2°46.039 11.5 246 7.3 102990 61
2002-03-25 11:53 51°37.765 2°45.965 10.5 250 7.3 102990 61
2002-03-25 11:54 51°37.569 2°45.864 11.1 249 7.4 102990 61
2002-03-25 11:55 51°37.374 2°45.759 11.2 249 7.4 102990 61
2002-03-25 11:56 51°37.177 2°45.652 11 250 7.4 102990 61
2002-03-25 11:57 51°36.982 2°45.545 9.7 250 7.4 102990 62
2002-03-25 11:58 51°36.786 2°45.437 11.6 252 7.4 102980 60
2002-03-25 11:59 51°36.601 2°45.29 9.1 261 7.4 102980 62
2002-03-25 12:00 51°36.553 2°44.977 6 270 7.4 103000 63
2002-03-25 12:01 51°36.688 2°44.7 3.7 241 7.4 103010 60
2002-03-25 12:02 51°36.847 2°44.421 4.3 263 7.4 103000 60
2002-03-25 12:03 51°37.002 2°44.147 3.9 252 7.4 103010 61
2002-03-25 12:04 51°37.155 2°43.867 4.4 254 7.4 103000 58
2002-03-25 12:05 51°37.302 2°43.579 4.2 265 7.4 103000 58
2002-03-25 12:06 51°37.451 2°43.293 3.9 259 7.5 103000 58
2002-03-25 12:07 51°37.596 2°43.007 3.5 244 7.5 103000 59
2002-03-25 12:08 51°37.743 2°42.722 4.1 265 7.6 103000 61
2002-03-25 12:09 51°37.887 2°42.442 4.4 259 7.7 103000 63
2002-03-25 12:10 51°38.036 2°42.15 3.9 254 7.6 103000 60
2002-03-25 12:11 51°38.146 2°41.85 8.1 267 7.6 103000 60
2002-03-25 12:12 51°38.116 2°41.517 7 269 7.6 102990 59
2002-03-25 12:13 51°38.1 2°41.171 7.4 265 7.6 103000 59
2002-03-25 12:14 51°38.086 2°40.825 7.5 263 7.6 102990 60
2002-03-25 12:15 51°38.073 2°40.48 7.7 268 7.6 102990 60
2002-03-25 12:16 51°38.061 2°40.134 7.7 263 7.6 102990 57
2002-03-25 12:17 51°38.008 2°39.812 8.9 259 7.6 102990 60
2002-03-25 12:18 51°37.848 2°39.612 10.9 252 7.6 102980 61
2002-03-25 12:19 51°37.662 2°39.467 10.6 252 7.6 102980 61
2002-03-25 12:20 51°37.471 2°39.332 9.5 251 7.6 102980 60
2002-03-25 12:21 51°37.282 2°39.191 10.7 251 7.6 102980 61
2002-03-25 12:22 51°37.089 2°39.068 10.2 244 7.6 102980 60
2002-03-25 12:23 51°36.89 2°38.97 10.4 250 7.7 102980 60
2002-03-25 12:24 51°36.691 2°38.864 10 247 7.8 102980 60
2002-03-25 12:25 51°36.492 2°38.756 11 246 7.8 102970 61
2002-03-25 12:26 51°36.291 2°38.652 10.1 250 7.8 102980 61
2002-03-25 12:27 51°36.09 2°38.545 11.2 244 7.8 102970 62
2002-03-25 12:28 51°35.888 2°38.441 10.2 246 7.7 102980 60
2002-03-25 12:29 51°35.686 2°38.338 11.2 246 7.6 102970 60
2002-03-25 12:30 51°35.484 2°38.233 10.6 246 7.6 102970 62
2002-03-25 12:31 51°35.283 2°38.13 10.5 245 7.6 102970 61
2002-03-25 12:32 51°35.081 2°38.093 10.8 236 7.6 102980 59
2002-03-25 12:33 51°34.968 2°38.369 10.2 224 7.5 102990 59
2002-03-25 12:34 51°34.863 2°38.688 10.3 228 7.4 102980 60
2002-03-25 12:35 51°34.754 2°39.008 10 226 7.4 102980 59
2002-03-25 12:36 51°34.645 2°39.328 10.8 226 7.4 102980 60
2002-03-25 12:37 51°34.534 2°39.647 10.4 230 7.4 102980 58
2002-03-25 12:38 51°34.424 2°39.962 10.4 224 7.4 102980 57
2002-03-25 12:39 51°34.323 2°40.286 9.6 224 7.4 102990 58
2002-03-25 12:40 51°34.219 2°40.613 10.2 226 7.4 102980 58
2002-03-25 12:41 51°34.119 2°40.944 9.9 227 7.4 102980 62
2002-03-25 12:42 51°34.018 2°41.275 10.2 226 7.4 102980 61
2002-03-25 12:43 51°33.919 2°41.606 9.4 225 7.3 102980 61
2002-03-25 12:44 51°33.819 2°41.936 9.4 225 7.3 102990 61
2002-03-25 12:45 51°33.72 2°42.264 10 224 7.4 102980 59
2002-03-25 12:46 51°33.621 2°42.591 10.6 228 7.3 102980 58
2002-03-25 12:47 51°33.503 2°42.895 10.5 234 7.3 102970 57
2002-03-25 12:48 51°33.304 2°42.975 10.5 250 7.4 102970 57
2002-03-25 12:49 51°33.101 2°42.879 8.6 249 7.4 102970 57
2002-03-25 12:50 51°32.901 2°42.759 10.2 247 7.4 102970 57
2002-03-25 12:51 51°32.7 2°42.64 9.3 251 7.4 102960 57
2002-03-25 12:52 51°32.498 2°42.521 9.3 246 7.5 102960 57
2002-03-25 12:53 51°32.294 2°42.401 8.4 251 7.5 102970 58
2002-03-25 12:54 51°32.092 2°42.279 9.6 247 7.5 102960 58
2002-03-25 12:55 51°31.892 2°42.154 9.3 251 7.5 102960 57
2002-03-25 12:56 51°31.691 2°42.018 10.1 246 7.6 102960 59
2002-03-25 12:57 51°31.489 2°41.886 9.1 247 7.6 102960 58
2002-03-25 12:58 51°31.288 2°41.754 8.3 247 7.6 102960 57
2002-03-25 12:59 51°31.086 2°41.622 9.2 250 7.6 102950 57
2002-03-25 13:00 51°30.885 2°41.49 10.3 247 7.6 102950 57
2002-03-25 13:01 51°30.684 2°41.358 8.1 251 7.6 102960 56
2002-03-25 13:02 51°30.485 2°41.228 8.3 251 7.6 102950 58
2002-03-25 13:03 51°30.36 2°40.958 5.7 252 7.6 102960 58
2002-03-25 13:04 51°30.319 2°40.605 6.3 246 7.6 102960 57
2002-03-25 13:05 51°30.281 2°40.249 6.4 252 7.6 102960 57
2002-03-25 13:06 51°30.258 2°39.888 6.3 251 7.6 102960 57
2002-03-25 13:07 51°30.24 2°39.523 5.7 240 7.5 102960 56
2002-03-25 13:08 51°30.213 2°39.161 5.6 243 7.5 102960 58
2002-03-25 13:09 51°30.181 2°38.801 6 243 7.5 102960 59
2002-03-25 13:10 51°30.151 2°38.443 6 245 7.5 102950 59
2002-03-25 13:11 51°30.126 2°38.084 6.7 243 7.5 102960 58
2002-03-25 13:12 51°30.114 2°37.721 5.9 240 7.5 102960 57
2002-03-25 13:13 51°30.105 2°37.356 6.3 242 7.5 102960 60
2002-03-25 13:14 51°30.098 2°36.991 6.7 242 7.5 102960 60
2002-03-25 13:15 51°30.09 2°36.626 6.2 246 7.4 102950 58
2002-03-25 13:16 51°30.085 2°36.26 6.1 234 7.4 102960 58
2002-03-25 13:17 51°30.043 2°35.906 7.4 244 7.4 102950 58
2002-03-25 13:18 51°29.984 2°35.562 6.9 238 7.4 102950 60
2002-03-25 13:19 51°29.908 2°35.226 7.2 242 7.4 102950 58
2002-03-25 13:20 51°29.83 2°34.883 6.8 244 7.4 102950 59
2002-03-25 13:21 51°29.752 2°34.543 7.5 246 7.4 102950 60
2002-03-25 13:22 51°29.633 2°34.254 8.2 240 7.4 102950 59
2002-03-25 13:23 51°29.419 2°34.18 8.7 239 7.4 102940 59
2002-03-25 13:24 51°29.2 2°34.223 8.4 235 7.4 102950 57
2002-03-25 13:25 51°28.997 2°34.375 8.5 236 7.4 102950 58
2002-03-25 13:26 51°28.786 2°34.499 8.6 234 7.4 102950 59
2002-03-25 13:27 51°28.584 2°34.63 8.1 236 7.4 102940 61
2002-03-25 13:28 51°28.38 2°34.767 8.2 237 7.3 102940 60
2002-03-25 13:29 51°28.175 2°34.904 9.3 237 7.4 102940 62
2002-03-25 13:30 51°27.966 2°35.042 8.5 237 7.4 102930 60
2002-03-25 13:31 51°27.758 2°35.171 8.2 239 7.4 102930 60
2002-03-25 13:32 51°27.547 2°35.291 9 239 7.4 102930 59
2002-03-25 13:33 51°27.336 2°35.415 9 243 7.4 102930 58
2002-03-25 13:34 51°27.123 2°35.536 8.9 245 7.4 102930 58
2002-03-25 13:35 51°26.906 2°35.631 8.1 243 7.4 102930 58
2002-03-25 13:36 51°26.684 2°35.71 8.2 246 7.4 102930 59
2002-03-25 13:37 51°26.463 2°35.783 8.1 248 7.5 102920 58
2002-03-25 13:38 51°26.241 2°35.853 8.9 253 7.5 102920 59
2002-03-25 13:39 51°26.023 2°35.925 8.5 249 7.5 102920 59
2002-03-25 13:40 51°25.798 2°35.999 9 243 7.5 102920 58
2002-03-25 13:41 51°25.579 2°36.071 8.9 248 7.5 102920 57
2002-03-25 13:42 51°25.359 2°36.145 7.9 250 7.5 102930 57
2002-03-25 13:43 51°25.138 2°36.218 8.8 244 7.6 102920 58
2002-03-25 13:44 51°24.916 2°36.284 8.5 250 7.6 102920 60
2002-03-25 13:45 51°24.695 2°36.344 8.4 249 7.6 102920 58
2002-03-25 13:46 51°24.473 2°36.404 7.8 250 7.6 102920 59
2002-03-25 13:47 51°24.252 2°36.463 7.8 244 7.6 102920 58
2002-03-25 13:48 51°24.028 2°36.523 7.4 249 7.6 102920 58
2002-03-25 13:49 51°23.806 2°36.591 8 243 7.6 102920 58
2002-03-25 13:50 51°23.584 2°36.659 7.1 243 7.6 102920 57
2002-03-25 13:51 51°23.364 2°36.729 7.6 246 7.6 102920 58
2002-03-25 13:52 51°23.145 2°36.801 7.6 247 7.6 102910 58
2002-03-25 13:53 51°22.928 2°36.888 7.6 251 7.6 102910 57
2002-03-25 13:54 51°22.712 2°36.989 7.4 247 7.6 102910 57
2002-03-25 13:55 51°22.523 2°37.175 9.4 246 7.6 102910 57
2002-03-25 13:56 51°22.352 2°37.404 8.5 248 7.7 102910 57
2002-03-25 13:57 51°22.194 2°37.655 8.4 248 7.7 102900 57
2002-03-25 13:58 51°22.048 2°37.922 9 244 7.7 102900 58
2002-03-25 13:59 51°21.909 2°38.201 9 250 7.7 102910 58
2002-03-25 14:00 51°21.768 2°38.478 9.1 244 7.7 102900 57
2002-03-25 14:01 51°21.646 2°38.769 9.7 247 7.7 102890 58
2002-03-25 14:02 51°21.533 2°39.082 10.3 246 7.7 102890 59
2002-03-25 14:03 51°21.423 2°39.393 9.7 246 7.7 102900 57
2002-03-25 14:04 51°21.317 2°39.698 9.4 245 7.7 102890 57
2002-03-25 14:05 51°21.209 2°40.014 9.5 243 7.7 102900 57
2002-03-25 14:06 51°21.123 2°40.338 9.6 246 7.8 102900 58
2002-03-25 14:07 51°21.058 2°40.675 9.5 248 7.8 102890 57
2002-03-25 14:08 51°20.992 2°41.006 9.7 252 7.8 102890 57
2002-03-25 14:09 51°20.924 2°41.341 9.7 245 7.8 102890 58
2002-03-25 14:10 51°20.852 2°41.679 9.3 249 7.8 102890 57
2002-03-25 14:11 51°20.766 2°42.001 8.7 250 7.8 102890 58
2002-03-25 14:12 51°20.675 2°42.316 8.8 252 7.8 102890 58
2002-03-25 14:13 51°20.587 2°42.628 9.6 255 7.8 102890 58
2002-03-25 14:14 51°20.494 2°42.953 8.9 250 7.8 102890 59
2002-03-25 14:15 51°20.403 2°43.276 9.4 252 7.8 102890 57
2002-03-25 14:16 51°20.311 2°43.598 9.4 248 7.8 102890 57
2002-03-25 14:17 51°20.22 2°43.922 9 252 7.8 102880 57
2002-03-25 14:18 51°20.133 2°44.242 9.9 256 7.8 102880 58
2002-03-25 14:19 51°20.041 2°44.573 9.8 250 7.8 102880 59
2002-03-25 14:20 51°19.951 2°44.896 9.6 254 7.8 102880 59
2002-03-25 14:21 51°19.86 2°45.217 9.2 253 7.8 102880 60
2002-03-25 14:22 51°19.769 2°45.533 9.1 252 7.7 102880 57
2002-03-25 14:23 51°19.683 2°45.84 8.5 251 7.7 102880 58
2002-03-25 14:24 51°19.591 2°46.159 9.7 251 7.8 102880 60
2002-03-25 14:25 51°19.5 2°46.476 9.5 253 7.8 102880 58
2002-03-25 14:26 51°19.409 2°46.793 9.8 253 7.8 102880 59
2002-03-25 14:27 51°19.32 2°47.103 9.3 252 7.7 102870 58
2002-03-25 14:28 51°19.227 2°47.418 9.9 253 7.8 102870 58
2002-03-25 14:29 51°19.132 2°47.735 10.5 254 7.8 102870 59
2002-03-25 14:30 51°19.039 2°48.046 9.7 253 7.8 102880 59
2002-03-25 14:31 51°18.945 2°48.356 9.8 255 7.8 102870 59
2002-03-25 14:32 51°18.848 2°48.658 9.3 258 7.8 102870 60
2002-03-25 14:33 51°18.745 2°48.963 10 259 7.8 102870 60
2002-03-25 14:34 51°18.636 2°49.254 9.6 256 7.7 102870 60
2002-03-25 14:35 51°18.526 2°49.548 8.9 259 7.7 102870 57
2002-03-25 14:36 51°18.407 2°49.842 9.1 257 7.7 102870 57
2002-03-25 14:37 51°18.289 2°50.135 10.3 262 7.7 102860 59
2002-03-25 14:38 51°18.159 2°50.416 9.9 259 7.7 102860 60
2002-03-25 14:39 51°18.03 2°50.698 10 261 7.7 102860 58
2002-03-25 14:40 51°17.902 2°50.979 9.6 262 7.7 102870 59
2002-03-25 14:41 51°17.777 2°51.251 9.8 262 7.7 102870 60
2002-03-25 14:42 51°17.649 2°51.524 10.1 261 7.7 102860 59
2002-03-25 14:43 51°17.517 2°51.806 9.7 265 7.7 102860 58
2002-03-25 14:44 51°17.373 2°52.066 9.4 264 7.7 102860 61
2002-03-25 14:45 51°17.192 2°52.268 8.7 274 7.6 102860 59
2002-03-25 14:46 51°16.993 2°52.424 9.1 273 7.6 102870 60
2002-03-25 14:47 51°16.797 2°52.591 7.6 276 7.6 102870 60
2002-03-25 14:48 51°16.598 2°52.76 7.9 272 7.6 102870 61
2002-03-25 14:49 51°16.398 2°52.926 7.5 275 7.6 102860 60
2002-03-25 14:50 51°16.198 2°53.087 7.7 277 7.6 102870 62
2002-03-25 14:51 51°15.999 2°53.25 7.5 279 7.7 102860 61
2002-03-25 14:52 51°15.8 2°53.414 7.7 278 7.7 102870 60
2002-03-25 14:53 51°15.6 2°53.577 7.1 278 7.7 102870 60
2002-03-25 14:54 51°15.419 2°53.722 6.2 292 7.7 102870 62
2002-03-25 14:55 51°15.296 2°53.824 6.6 294 7.7 102870 64
2002-03-25 14:56 51°15.179 2°53.937 7.2 294 7.7 102870 63
2002-03-25 14:57 51°15.065 2°54.069 6.9 293 7.7 102870 62
2002-03-25 14:58 51°14.947 2°54.213 7.6 286 7.7 102870 63
2002-03-25 14:59 51°14.82 2°54.379 7.2 287 7.7 102870 63
2002-03-25 15:00 51°14.686 2°54.559 7.6 280 7.8 102860 65
2002-03-25 15:01 51°14.533 2°54.78 8.4 279 7.8 102860 63
2002-03-25 15:02 51°14.397 2°55.019 9.2 277 7.7 102850 63
2002-03-25 15:03 51°14.273 2°55.249 7.7 271 7.7 102860 66
2002-03-25 15:04 51°14.171 2°55.382 3.8 322 7.8 102870 64
2002-03-25 15:05 51°14.089 2°55.44 0.8 327 7.8 102870 65
2002-03-25 15:06 51°13.99 2°55.511 3.4 296 7.8 102870 62
2002-03-25 15:07 51°13.854 2°55.614 1.6 321 7.8 102860 63
2002-03-25 15:08 51°13.778 2°55.674 0.9 312 7.8 102870 62
2002-03-25 15:09 51°13.735 2°55.75 2.2 332 7.8 102870 61
2002-03-25 15:10 51°13.708 2°55.817 0.8 147 7.9 102870 61
2002-03-25 15:11 51°13.696 2°55.871 5.9 301 8 102860 62